Laughlin Air Force Base
KDLF : rendu visible

Aérodrome :











RETROUVEZ-NOUS SUR...

 
LOGIN :

S'inscrire | Disclaimer

   EN    FR    IT 

 









Légende :    VFR   VFR Marginal   IFR   IFR Intensif   IFR Très Intensif
Visi : 
Plafond : 
>= 8 km
>= 3000ft
5 à 8 km
1000 à 3000 ft
1500m à 5 km
500 à 1000 ft
800 à 1500m
200 à 500 ft
< 800m
< 200 ft
Symboles :   Orages  Brouillard  Fortes neiges  Fortes précipitations  Vent > 20 kt






- Altitude de l'aérodrome : 1082 ft


KDLF - Laughlin Air Force Base

DERNIER METAR :
  • 271656Z AUTO 15010KT 10SM CLR 12/M08 A3041 RMK AO2 SLP302 T01181081 $

METARs EXPIRÉS :
  • 271556Z AUTO 18011KT 10SM CLR 10/M08 A3042 RMK AO2 SLP305 T01021080 $

TAF TAF KDLF
Valide du 27 à 11h jusqu'au 28 à 17h UTC


271100Z 2711/2817 VRB05KT 9999 SKC QNH3039INS
BECMG 2715/2716 17009KT 9999 SKC QNH3026INS
BECMG 2802/2803 VRB05KT 9999 SKC QNH3032INS
BECMG 2816/2817 16006KT 9999 FEW250 QNH3038INS TX18/2722Z TNM04/2711Z



MET'MAP, la Météo Aéronautique d'un coup d'oeil ! - Copyright ORBIFLY Décembre 2007 - Disclaimer

ORBIFLY MET'MAP TEAM :

Programmation & Développement : Alexandra Zaïnal
Sur une idée originale de : Baudouin d'Aumeries
Assistance à la programmation : Marc-Olivier Méhu
Soutien technique & logistique : Manuel Goepfert

Contact : metmap@orbifly.com




SOURCES & CREDITS :

   NOAA       Earth
Advisory